Main page
METAR-TAF:

METAR-TAF

Airports :

Oil platform

Sleipner, Norway

latitude: 58-22-00N, longitude: 001-54-25E, elevation: 50 m

Current weather observation

The report was made 30 minutes ago, at 09:50 UTC
Wind 20 kt from the East/Southeast
Temperature 8°C
Humidity 66%
Pressure 1036 hPa
Visibility 10 km or more
Broken clouds at a height of 2500 ft

METAR: ENSL 190950Z 12020KT 9999 BKN025 08/02 Q1036 W07/S4

Time: 11:20 (10:20 UTC)

Forecast

The report was made 2 hours and 20 minutes ago, at 08:00 UTC
Forecast valid from 19 at 09 UTC to 19 at 18 UTC
Wind 20 kt from the East/Southeast
Visibility 10 km or more
Broken clouds at a height of 2500 ft

TAF: ENSL 190800Z 1909/1918 12020KT 9999 BKN025

Weather observations and forecasts of more than 4000 airports (METAR and TAF reports).

The available stations are represented by yellow and red dots on the map.

Hover mouse over dot to see the name of the station.

Then click to see weather observations and forecasts.

To change the map : click on the green buttons with a black cross to zoom in, on the green button with a dash to zoom out, or on the green arrows for adjacent maps.


METAR-TAF: